Time;durP1;ratioP1;P1;durP2;ratioP2;P2;SDS_P1;SDS_P2;PMS_P1;PMS_P2;Temp;Humidity;BMP_temperature;BMP_pressure;BME280_temperature;BME280_humidity;BME280_pressure;Samples;Min_cycle;Max_cycle;Signal;HPM_P1;HPM_P2
2022/05/13 00:00:31;;;;;;;8.45;2.10;;;;;;;13.18;67.59;100942.00;6244613;23;20019;-73
2022/05/13 00:03:37;;;;;;;8.02;2.50;;;;;;;13.09;67.81;100946.00;6245205;23;20069;-73
2022/05/13 00:06:41;;;;;;;8.48;2.35;;;;;;;13.10;67.74;100938.97;6244710;23;20027;-73
2022/05/13 00:10:00;;;;;;;4.05;2.17;;;;;;;12.94;68.65;100938.97;6244770;23;20079;-73
2022/05/13 00:13:08;;;;;;;5.53;2.05;;;;;;;13.04;69.02;100940.16;6244566;23;20055;-73
2022/05/13 00:16:12;;;;;;;6.32;2.15;;;;;;;12.90;68.98;100926.97;6245663;23;20054;-73
2022/05/13 00:19:16;;;;;;;7.97;1.98;;;;;;;12.90;68.70;100932.22;6246573;23;20078;-73
2022/05/13 00:22:22;;;;;;;6.78;2.30;;;;;;;12.80;68.84;100937.13;6246721;23;20092;-73
2022/05/13 00:25:31;;;;;;;9.65;3.00;;;;;;;12.84;69.22;100932.53;6246844;23;20055;-73
2022/05/13 00:28:36;;;;;;;7.05;2.10;;;;;;;12.95;67.92;100927.53;6246482;23;20074;-73
2022/05/13 00:31:51;;;;;;;5.13;2.70;;;;;;;12.94;68.40;100926.69;6246600;23;20039;-73
2022/05/13 00:34:56;;;;;;;9.02;2.97;;;;;;;12.80;69.13;100927.47;6246428;23;20063;-73
2022/05/13 00:38:00;;;;;;;6.43;2.28;;;;;;;12.67;69.34;100926.44;6246791;23;20434;-73
2022/05/13 00:41:04;;;;;;;5.38;1.73;;;;;;;12.69;69.13;100923.72;6246446;23;20463;-73
2022/05/13 00:44:08;;;;;;;5.50;2.03;;;;;;;12.60;69.54;100922.44;6246072;23;20069;-73
2022/05/13 00:47:13;;;;;;;4.45;2.03;;;;;;;12.52;69.14;100922.03;6247296;23;20047;-73
2022/05/13 00:53:49;;;;;;;5.35;2.50;;;;;;;12.60;69.33;100925.06;6246565;23;20027;-73
2022/05/13 00:56:55;;;;;;;4.95;2.33;;;;;;;12.56;69.27;100928.78;6246265;23;20070;-73
2022/05/13 01:00:11;;;;;;;3.05;1.70;;;;;;;12.41;69.69;100927.84;6228451;23;20541;-73
2022/05/13 01:03:16;;;;;;;5.20;2.00;;;;;;;12.32;69.54;100916.06;6246520;23;20023;-73
2022/05/13 01:06:22;;;;;;;3.63;2.17;;;;;;;12.25;69.78;100919.97;6246344;23;20070;-73
2022/05/13 01:09:28;;;;;;;5.10;2.20;;;;;;;12.23;70.02;100924.44;6246522;23;20023;-73
2022/05/13 01:12:37;;;;;;;5.63;2.50;;;;;;;12.10;70.47;100926.00;6246168;22;20026;-73
2022/05/13 01:15:43;;;;;;;4.38;2.10;;;;;;;12.07;70.40;100919.13;6245966;23;20034;-73
2022/05/13 01:18:47;;;;;;;5.38;2.15;;;;;;;12.01;70.27;100926.47;6246343;23;20031;-73
2022/05/13 01:21:51;;;;;;;4.03;2.40;;;;;;;12.04;70.49;100926.31;6246284;23;20347;-73
2022/05/13 01:24:56;;;;;;;4.30;2.30;;;;;;;12.04;70.49;100934.19;6246158;23;20450;-73
2022/05/13 01:28:31;;;;;;;4.30;2.58;;;;;;;12.09;70.34;100933.03;6246125;23;20424;-73
2022/05/13 01:31:39;;;;;;;8.27;2.33;;;;;;;12.07;70.50;100941.88;6246115;23;20042;-73
2022/05/13 01:34:44;;;;;;;5.32;2.10;;;;;;;12.07;70.62;100937.50;6245979;23;20035;-73
2022/05/13 01:37:50;;;;;;;6.55;2.15;;;;;;;12.02;70.91;100938.66;6246135;23;20096;-73
2022/05/13 01:41:05;;;;;;;5.70;2.30;;;;;;;11.93;71.29;100946.97;6245725;23;20023;-73
2022/05/13 01:44:09;;;;;;;3.42;2.15;;;;;;;11.91;71.30;100946.22;6245757;23;20122;-73
2022/05/13 01:47:12;;;;;;;;;;;;;;;11.94;70.97;100952.16;6246657;23;20031;-73
2022/05/13 01:50:18;;;;;;;8.27;2.80;;;;;;;11.98;70.65;100953.69;6245904;23;19961;-73
2022/05/13 01:53:23;;;;;;;4.28;2.35;;;;;;;11.87;70.83;100948.16;6245708;23;20030;-73
2022/05/13 01:56:28;;;;;;;5.43;2.30;;;;;;;11.91;70.83;100956.72;6245806;23;20138;-73
2022/05/13 01:59:32;;;;;;;5.38;2.20;;;;;;;11.80;71.60;100955.41;6227373;23;20096;-73
2022/05/13 02:03:44;;;;;;;5.47;2.38;;;;;;;11.77;71.38;100953.00;6245938;23;20050;-73
2022/05/13 02:06:00;;;;;;;3.78;1.80;;;;;;;11.90;71.18;100962.84;6245757;23;20031;-73
2022/05/13 02:09:03;;;;;;;4.05;2.05;;;;;;;11.89;70.90;100963.78;6245586;23;20043;-73
2022/05/13 02:12:08;;;;;;;12.00;2.20;;;;;;;11.78;71.32;100966.94;6245677;22;20026;-73
2022/05/13 02:15:12;;;;;;;4.07;1.90;;;;;;;11.72;71.65;100967.22;6245481;23;20170;-73
2022/05/13 02:18:16;;;;;;;5.75;2.33;;;;;;;11.71;71.30;100960.28;6245768;23;20082;-73
2022/05/13 02:21:21;;;;;;;7.18;2.03;;;;;;;11.60;71.06;100968.69;6246025;23;20023;-73
2022/05/13 02:24:26;;;;;;;7.22;2.22;;;;;;;11.52;71.84;100968.19;6245705;23;20023;-73
2022/05/13 02:27:30;;;;;;;4.25;2.25;;;;;;;11.48;71.75;100966.66;6245577;23;20344;-73
2022/05/13 02:30:35;;;;;;;5.38;2.25;;;;;;;11.60;70.84;100958.19;6245641;23;20582;-73
2022/05/13 02:33:39;;;;;;;6.07;2.10;;;;;;;11.48;71.25;100970.13;6245154;23;20351;-73
2022/05/13 02:36:48;;;;;;;4.43;1.80;;;;;;;11.48;71.50;100969.28;6245540;23;20023;-73
2022/05/13 02:39:53;;;;;;;5.28;2.78;;;;;;;11.43;71.71;100968.66;6245063;23;20026;-73
2022/05/13 02:42:58;;;;;;;4.15;2.08;;;;;;;11.37;71.97;100972.44;6245414;23;20027;-73
2022/05/13 02:46:04;;;;;;;5.32;1.85;;;;;;;11.36;71.85;100971.59;6226733;23;20470;-73
2022/05/13 02:49:09;;;;;;;5.20;2.35;;;;;;;11.26;72.18;100974.69;6227480;23;20070;-73
2022/05/13 02:52:14;;;;;;;;;;;;;;;11.30;71.75;100971.88;6245727;23;20066;-72
2022/05/13 02:55:19;;;;;;;5.32;2.13;;;;;;;11.26;71.70;100974.69;6226770;23;19915;-73
2022/05/13 02:58:24;;;;;;;8.90;2.63;;;;;;;11.15;72.34;100977.84;6245697;23;20074;-72
2022/05/13 03:01:28;;;;;;;5.13;2.40;;;;;;;11.13;72.25;100969.19;6226694;23;20030;-73
2022/05/13 03:04:31;;;;;;;4.97;2.30;;;;;;;11.19;71.86;100974.16;6245303;23;20550;-73
2022/05/13 03:07:36;;;;;;;6.95;2.70;;;;;;;11.18;72.04;100975.06;6244893;23;20047;-72
2022/05/13 03:10:40;;;;;;;5.90;2.22;;;;;;;11.10;72.39;100974.59;6245069;22;20027;-72
2022/05/13 03:13:44;;;;;;;7.22;3.35;;;;;;;10.97;72.85;100973.47;6244666;23;20535;-73
2022/05/13 03:16:54;;;;;;;3.28;1.90;;;;;;;10.99;72.83;100971.63;6245217;23;20406;-73
2022/05/13 03:19:58;;;;;;;6.13;2.15;;;;;;;11.05;72.58;100972.19;6245128;23;20039;-73
2022/05/13 03:23:04;;;;;;;5.35;2.60;;;;;;;10.98;72.22;100964.72;6244995;23;20026;-73
2022/05/13 03:26:13;;;;;;;5.85;2.50;;;;;;;10.92;72.45;100964.06;6245057;23;20477;-72
2022/05/13 03:29:17;;;;;;;3.58;1.92;;;;;;;10.85;72.88;100961.81;6245483;23;20027;-72
2022/05/13 03:32:20;;;;;;;;;;;;;;;10.85;72.85;100961.81;6245664;23;20023;-72
2022/05/13 03:35:25;;;;;;;6.75;2.47;;;;;;;10.71;73.25;100957.22;6244867;23;19922;-73
2022/05/13 03:38:31;;;;;;;5.53;2.50;;;;;;;10.77;72.81;100956.94;6244241;23;20022;-72
2022/05/13 03:45:09;;;;;;;3.45;1.83;;;;;;;10.70;72.77;100965.97;6245052;23;20509;-73
2022/05/13 03:48:14;;;;;;;6.03;2.20;;;;;;;10.65;72.64;100957.47;6245104;23;20394;-73
2022/05/13 03:51:18;;;;;;;5.05;3.03;;;;;;;10.66;72.93;100969.66;6243885;23;20095;-73
2022/05/13 03:54:28;;;;;;;5.03;2.22;;;;;;;10.59;72.89;100969.09;6244745;23;20023;-72
2022/05/13 04:01:08;;;;;;;4.75;2.53;;;;;;;10.58;73.11;100971.75;6246748;23;20027;-72
2022/05/13 04:04:14;;;;;;;5.35;2.28;;;;;;;10.71;72.84;100975.50;6226222;23;20103;-73
2022/05/13 04:10:45;;;;;;;4.28;2.25;;;;;;;10.84;71.94;100979.25;6245032;22;20023;-72
2022/05/13 04:17:13;;;;;;;;;;;;;;;10.71;72.57;100985.97;6238739;23;20102;-73
2022/05/13 04:20:35;;;;;;;5.68;1.98;;;;;;;10.76;72.54;100989.25;6238437;23;19954;-72
2022/05/13 04:24:14;;;;;;;6.40;2.42;;;;;;;10.84;71.83;100992.34;6237662;23;20031;-73
2022/05/13 04:27:26;;;;;;;4.63;2.40;;;;;;;10.74;72.33;100993.69;6220836;23;20046;-73
2022/05/13 04:30:32;;;;;;;6.18;2.47;;;;;;;10.62;73.12;100999.47;6238526;23;20394;-73
2022/05/13 04:33:38;;;;;;;4.70;2.30;;;;;;;10.69;73.17;100998.28;6238722;23;20031;-73
2022/05/13 04:37:15;;;;;;;4.65;2.33;;;;;;;10.80;72.98;101001.25;6237894;23;20074;-73
2022/05/13 04:40:21;;;;;;;6.82;4.65;;;;;;;10.96;72.27;101003.19;6237680;23;20478;-72
2022/05/13 04:43:26;;;;;;;6.28;4.50;;;;;;;10.97;72.76;101007.47;6237563;23;20394;-73
2022/05/13 04:46:31;;;;;;;6.10;3.60;;;;;;;10.94;73.14;101014.56;6239162;23;20023;-73
2022/05/13 04:49:37;;;;;;;5.40;3.00;;;;;;;11.00;73.01;101015.19;6239098;23;20053;-73
2022/05/13 04:52:43;;;;;;;5.63;2.70;;;;;;;10.98;73.24;101003.97;6219684;23;20109;-73
2022/05/13 04:55:54;;;;;;;8.27;2.85;;;;;;;10.92;73.56;101011.16;6238953;23;20028;-73
2022/05/13 04:58:59;;;;;;;10.35;3.90;;;;;;;10.93;73.61;101020.69;6220750;23;20399;-72
2022/05/13 05:02:04;;;;;;;7.57;3.33;;;;;;;11.02;73.23;101027.28;6240134;23;20023;-73
2022/05/13 05:05:12;;;;;;;10.45;2.67;;;;;;;10.88;74.12;101025.31;6240852;23;20320;-73
2022/05/13 05:08:33;;;;;;;5.47;2.38;;;;;;;10.94;74.07;101035.50;6240626;23;20031;-73
2022/05/13 05:11:56;;;;;;;9.30;2.60;;;;;;;11.07;74.25;101030.56;6240344;22;20027;-72
2022/05/13 05:15:55;;;;;;;9.40;3.70;;;;;;;11.33;73.01;101037.19;6240553;23;20031;-73
2022/05/13 05:19:01;;;;;;;8.02;3.88;;;;;;;11.46;72.53;101034.84;6221729;23;20027;-73
2022/05/13 05:22:06;;;;;;;9.18;4.25;;;;;;;11.59;72.52;101040.34;6241009;23;20023;-73
2022/05/13 05:25:14;;;;;;;7.18;3.00;;;;;;;11.57;72.91;101036.94;6241558;23;20023;-73
2022/05/13 05:28:18;;;;;;;5.53;3.05;;;;;;;11.56;73.17;101041.31;6241595;23;20022;-73
2022/05/13 05:31:22;;;;;;;8.57;3.10;;;;;;;11.59;73.26;101041.19;6240815;23;20023;-73
2022/05/13 05:34:25;;;;;;;7.30;2.70;;;;;;;11.60;73.35;101053.34;6240263;23;20115;-73
2022/05/13 05:37:30;;;;;;;5.85;2.50;;;;;;;11.69;73.25;101062.53;6240123;23;20431;-73
2022/05/13 05:40:38;;;;;;;5.57;2.42;;;;;;;11.84;73.61;101061.81;6239283;23;20065;-73
2022/05/13 05:43:45;;;;;;;4.75;2.58;;;;;;;11.91;73.33;101064.16;6239898;23;20027;-73
2022/05/13 05:46:52;;;;;;;7.32;2.35;;;;;;;12.04;73.11;101067.84;6238451;23;20069;-73
2022/05/13 05:49:59;;;;;;;5.05;2.45;;;;;;;12.12;72.67;101063.06;6240466;23;20084;-73
2022/05/13 05:53:04;;;;;;;5.00;2.55;;;;;;;12.23;72.24;101065.16;6241330;23;20084;-73
2022/05/13 05:59:32;;;;;;;4.50;2.35;;;;;;;12.25;73.05;101074.66;6237980;23;20110;-73
2022/05/13 06:02:36;;;;;;;8.45;2.63;;;;;;;12.30;72.55;101067.38;6239302;23;20446;-73
2022/05/13 06:05:43;;;;;;;4.93;1.95;;;;;;;12.35;71.33;101075.03;6240757;23;20026;-73
2022/05/13 06:08:49;;;;;;;10.77;2.47;;;;;;;12.40;70.79;101074.78;6240133;23;20471;-73
2022/05/13 06:11:53;;;;;;;5.07;2.22;;;;;;;12.61;71.22;101068.44;6239926;22;20027;-73
2022/05/13 06:14:58;;;;;;;11.60;2.60;;;;;;;12.82;70.60;101071.69;6240084;23;20349;-73
2022/05/13 06:18:03;;;;;;;5.75;1.80;;;;;;;12.72;71.14;101081.00;6240440;23;20023;-73
2022/05/13 06:21:09;;;;;;;6.57;1.95;;;;;;;12.83;70.15;101073.41;6238800;23;20077;-73
2022/05/13 06:24:13;;;;;;;9.80;1.80;;;;;;;12.99;64.89;101089.19;6239737;23;20542;-73
2022/05/13 06:27:17;;;;;;;7.90;1.67;;;;;;;12.74;61.99;101093.09;6240287;23;20023;-73
2022/05/13 06:30:30;;;;;;;7.00;1.55;;;;;;;12.80;60.83;101087.53;6238874;23;20081;-73
2022/05/13 06:33:34;;;;;;;8.70;1.75;;;;;;;12.87;61.39;101102.97;6239552;23;20496;-74
2022/05/13 06:36:39;;;;;;;3.60;1.30;;;;;;;12.84;61.00;101096.09;6240417;23;20027;-73
2022/05/13 06:39:43;;;;;;;8.85;1.70;;;;;;;12.83;59.99;101090.91;6240532;23;20023;-73
2022/05/13 06:42:47;;;;;;;8.77;1.95;;;;;;;12.87;60.73;101095.09;6239259;23;20165;-73
2022/05/13 06:45:52;;;;;;;7.97;1.50;;;;;;;13.00;60.51;101094.34;6239228;23;20023;-73
2022/05/13 06:48:58;;;;;;;8.57;1.38;;;;;;;13.17;59.97;101088.19;6239213;23;20023;-73
2022/05/13 06:52:03;;;;;;;11.63;1.92;;;;;;;13.18;58.59;101086.44;6238758;23;20081;-74
2022/05/13 06:55:09;;;;;;;7.93;2.58;;;;;;;13.33;58.51;101087.38;6221149;23;20107;-73
2022/05/13 06:58:14;;;;;;;9.55;1.80;;;;;;;13.17;58.08;101088.19;6240354;23;20078;-73
2022/05/13 07:01:21;;;;;;;11.25;1.65;;;;;;;13.26;58.73;101084.25;6239854;23;20508;-73
2022/05/13 07:04:27;;;;;;;7.30;1.52;;;;;;;13.31;57.82;101094.53;6221819;23;20046;-72
2022/05/13 07:07:32;;;;;;;7.20;1.85;;;;;;;13.29;57.17;101099.00;6239628;23;20417;-73
2022/05/13 07:10:39;;;;;;;8.93;2.25;;;;;;;13.86;58.47;101091.44;6239447;22;20077;-73
2022/05/13 07:13:43;;;;;;;8.38;1.70;;;;;;;14.09;56.68;101095.38;6238762;23;20023;-73
2022/05/13 07:16:47;;;;;;;8.23;1.80;;;;;;;14.72;57.29;101095.16;6239584;23;20030;-73
2022/05/13 07:19:53;;;;;;;9.93;1.90;;;;;;;15.04;57.09;101087.09;6239691;23;20153;-75
2022/05/13 07:23:07;;;;;;;10.82;1.60;;;;;;;14.80;54.65;101086.78;6239439;23;20095;-74
2022/05/13 07:26:12;;;;;;;5.88;1.55;;;;;;;14.76;54.68;101087.94;6205137;23;20026;-74
2022/05/13 07:29:18;;;;;;;14.57;2.53;;;;;;;15.00;53.88;101081.16;6239641;23;20395;-74
2022/05/13 07:32:25;;;;;;;10.20;1.95;;;;;;;15.07;53.10;101079.84;6238600;23;20043;-73
2022/05/13 07:35:38;;;;;;;14.07;2.90;;;;;;;15.21;53.20;101083.38;6238367;23;20027;-74
2022/05/13 07:41:16;;;;;;;9.82;1.77;;;;;;;15.22;52.53;101085.06;6238924;23;20108;-74
2022/05/13 07:42:08;;;;;;;6.65;1.35;;;;;;;15.03;52.02;101090.66;6240502;22;20027;-73
2022/05/13 07:45:12;;;;;;;7.32;1.65;;;;;;;14.52;53.31;101104.28;6239975;23;20022;-73
2022/05/13 07:48:16;;;;;;;9.10;1.88;;;;;;;14.51;53.38;101099.91;6241603;23;20461;-73
2022/05/13 07:51:25;;;;;;;11.55;2.00;;;;;;;15.00;52.17;101091.69;6239410;23;20070;-73
2022/05/13 07:54:30;;;;;;;8.70;1.75;;;;;;;14.86;51.92;101094.31;6239294;23;20023;-73
2022/05/13 07:57:33;;;;;;;7.30;1.75;;;;;;;14.81;51.74;101104.31;6239575;23;20027;-72
2022/05/13 08:00:38;;;;;;;7.72;1.88;;;;;;;14.84;50.16;101109.38;6240494;23;20027;-73
2022/05/13 08:03:43;;;;;;;7.97;1.90;;;;;;;15.07;50.94;101108.81;6239478;23;20363;-73
2022/05/13 08:06:48;;;;;;;8.60;2.03;;;;;;;15.02;50.15;101116.13;6234604;23;20073;-73
2022/05/13 08:09:59;;;;;;;7.60;1.80;;;;;;;14.86;51.05;101115.38;6242841;23;20027;-73
2022/05/13 08:13:04;;;;;;;6.07;1.30;;;;;;;14.97;50.68;101112.13;6246633;23;20066;-73
2022/05/13 08:16:26;;;;;;;7.68;1.80;;;;;;;15.21;50.57;101104.47;6240864;23;20071;-73
2022/05/13 08:19:29;;;;;;;11.30;2.13;;;;;;;15.06;51.20;101106.25;6239591;23;20050;-73
2022/05/13 08:22:34;;;;;;;8.68;1.25;;;;;;;15.42;50.11;101123.38;6219675;23;20506;-73
2022/05/13 08:25:40;;;;;;;10.07;1.70;;;;;;;15.45;49.71;101115.25;6236890;23;20023;-73
2022/05/13 08:28:45;;;;;;;10.93;2.03;;;;;;;15.13;49.33;101119.91;6238088;23;20429;-73
2022/05/13 08:31:50;;;;;;;7.97;1.48;;;;;;;15.08;49.32;101121.03;6238592;23;20073;-73
2022/05/13 08:34:59;;;;;;;5.32;1.85;;;;;;;15.35;46.39;101122.91;6237915;23;20059;-72
2022/05/13 08:38:06;;;;;;;8.25;1.50;;;;;;;15.19;48.04;101127.41;6240955;23;20107;-73
2022/05/13 08:41:09;;;;;;;6.65;2.00;;;;;;;15.40;47.79;101131.34;6241322;22;20479;-73
2022/05/13 08:44:15;;;;;;;6.25;1.25;;;;;;;15.29;48.43;101139.09;6242001;23;20430;-73
2022/05/13 08:47:35;;;;;;;9.23;1.50;;;;;;;15.16;47.59;101130.28;6241226;23;20026;-73
2022/05/13 08:50:53;;;;;;;7.20;1.35;;;;;;;15.48;47.36;101129.09;6240042;23;20027;-72
2022/05/13 08:54:16;;;;;;;6.25;1.40;;;;;;;15.42;46.81;101123.38;6239819;23;20027;-73
2022/05/13 08:57:22;;;;;;;10.10;1.58;;;;;;;15.71;46.66;101129.44;6240393;23;20082;-73
2022/05/13 09:00:41;;;;;;;8.75;1.83;;;;;;;15.54;47.72;101138.41;6241498;23;20668;-73
2022/05/13 09:07:51;;;;;;;6.88;1.40;;;;;;;15.43;47.46;101127.69;6241202;23;20101;-73
2022/05/13 09:11:43;;;;;;;8.82;1.45;;;;;;;15.52;48.29;101122.69;6239764;23;20530;-72
2022/05/13 09:15:11;;;;;;;7.78;1.77;;;;;;;15.89;46.61;101127.41;6241521;23;20051;-72
2022/05/13 09:18:22;;;;;;;8.45;1.20;;;;;;;15.95;46.09;101127.00;6240320;23;20019;-72
2022/05/13 09:21:25;;;;;;;5.07;1.40;;;;;;;16.21;47.65;101126.16;6240397;23;20095;-83
2022/05/13 09:24:29;;;;;;;12.52;2.30;;;;;;;16.56;47.29;101117.66;6239347;23;20026;-81
2022/05/13 09:28:01;;;;;;;8.48;0.88;;;;;;;16.68;45.19;101129.16;6238491;23;20023;-73
2022/05/13 09:31:23;;;;;;;7.35;0.85;;;;;;;16.76;43.62;101118.97;6240910;23;20055;-74
2022/05/13 09:34:35;;;;;;;6.20;1.05;;;;;;;16.64;43.16;101117.97;6240283;23;20103;-74
2022/05/13 09:37:43;;;;;;;5.68;1.10;;;;;;;16.70;41.57;101111.44;6239667;23;20022;-73
2022/05/13 09:41:04;;;;;;;11.60;1.05;;;;;;;16.77;43.61;101106.59;6239830;22;20039;-73
2022/05/13 09:44:14;;;;;;;10.07;1.90;;;;;;;16.18;41.16;101120.25;6239866;23;20359;-73
2022/05/13 09:47:36;;;;;;;7.10;1.10;;;;;;;16.41;41.48;101111.63;6238603;23;20046;-73
2022/05/13 09:50:44;;;;;;;5.47;1.17;;;;;;;16.11;41.84;101118.94;6238098;23;20527;-73
2022/05/13 09:54:01;;;;;;;4.07;1.10;;;;;;;16.47;42.06;101115.66;6238853;23;20093;-74
2022/05/13 09:57:31;;;;;;;4.10;1.00;;;;;;;16.50;41.02;101118.91;6239403;23;20027;-73
2022/05/13 10:01:03;;;;;;;12.05;1.25;;;;;;;16.18;41.62;101105.25;6241670;22;20506;-74
2022/05/13 10:04:13;;;;;;;8.52;0.90;;;;;;;16.13;42.59;101103.84;6241981;22;20027;-73
2022/05/13 10:07:19;;;;;;;4.18;1.10;;;;;;;16.28;42.37;101105.47;6241892;23;20070;-73
2022/05/13 10:14:29;;;;;;;7.20;1.17;;;;;;;16.56;42.13;101101.81;6240414;23;20062;-73
2022/05/13 10:17:32;;;;;;;6.13;1.00;;;;;;;16.76;41.90;101097.84;6238799;23;20018;-73
2022/05/13 10:20:41;;;;;;;5.28;0.77;;;;;;;16.71;42.38;101106.03;6239465;23;20395;-73
2022/05/13 10:23:57;;;;;;;5.43;1.35;;;;;;;16.52;42.12;101095.88;6239724;23;20027;-73
2022/05/13 10:27:03;;;;;;;4.85;0.93;;;;;;;16.73;41.12;101092.75;6239909;23;20026;-73
2022/05/13 10:30:15;;;;;;;10.05;1.70;;;;;;;17.01;42.41;101089.06;6239166;23;20396;-73
2022/05/13 10:33:46;;;;;;;6.10;1.00;;;;;;;17.14;42.53;101096.97;6240133;23;20146;-73
2022/05/13 10:37:01;;;;;;;6.45;0.73;;;;;;;16.93;41.27;101092.22;6239621;23;20042;-73
2022/05/13 10:40:12;;;;;;;5.43;1.00;;;;;;;17.29;40.74;101092.38;6239227;23;20125;-74
2022/05/13 10:43:21;;;;;;;4.97;1.20;;;;;;;17.31;39.91;101093.97;6221430;23;20336;-73
2022/05/13 10:46:35;;;;;;;5.95;1.08;;;;;;;17.42;39.63;101087.88;6239724;23;20054;-73
2022/05/13 10:49:42;;;;;;;5.78;0.98;;;;;;;17.09;40.62;101088.50;6239140;23;20458;-73
2022/05/13 10:53:06;;;;;;;5.57;0.77;;;;;;;17.22;41.23;101089.31;6239562;23;20077;-73
2022/05/13 10:56:48;;;;;;;3.70;0.80;;;;;;;17.49;41.44;101085.66;6239963;23;20470;-73
2022/05/13 10:59:55;;;;;;;5.05;0.85;;;;;;;17.59;39.98;101084.03;6145706;23;20470;-73
2022/05/13 11:03:25;;;;;;;3.92;0.80;;;;;;;17.37;40.22;101077.66;6146774;23;20024;-73
2022/05/13 11:07:04;;;;;;;6.38;1.60;;;;;;;17.34;40.25;101083.16;6240072;23;20164;-73
2022/05/13 11:10:26;;;;;;;4.03;1.00;;;;;;;17.61;39.62;101079.47;6231296;23;20039;-73
2022/05/13 11:13:53;;;;;;;6.43;1.73;;;;;;;17.47;39.40;101084.94;6221561;23;20027;-73
2022/05/13 11:17:21;;;;;;;4.22;0.77;;;;;;;17.56;38.51;101071.88;6239858;22;20197;-73
2022/05/13 11:20:45;;;;;;;4.65;1.30;;;;;;;17.63;39.57;101074.91;6239203;23;20023;-73
2022/05/13 11:27:51;;;;;;;3.90;1.02;;;;;;;17.97;39.30;101065.38;6238682;23;20030;-73
2022/05/13 11:31:36;;;;;;;4.28;0.70;;;;;;;18.15;38.90;101067.59;6219966;23;20043;-73
2022/05/13 11:34:53;;;;;;;10.00;0.95;;;;;;;17.92;38.76;101066.66;6238572;23;20082;-73
2022/05/13 11:38:10;;;;;;;3.80;0.85;;;;;;;17.95;38.98;101061.16;6222357;23;20031;-73
2022/05/13 11:41:18;;;;;;;5.93;0.93;;;;;;;18.11;39.05;101066.97;6241340;23;20019;-73
2022/05/13 11:48:46;;;;;;;5.40;1.05;;;;;;;18.45;39.27;101069.72;6177939;23;20361;-73
2022/05/13 11:51:49;;;;;;;;;;;;;;;18.73;38.06;101064.00;6177593;23;20020;-73
2022/05/13 11:55:23;;;;;;;7.15;1.02;;;;;;;18.64;37.89;101054.09;6176365;23;19996;-73
2022/05/13 11:58:51;;;;;;;5.85;0.95;;;;;;;18.46;37.38;101058.16;6177026;23;20051;-74
2022/05/13 12:02:11;;;;;;;4.45;1.50;;;;;;;18.84;38.34;101041.13;6172966;23;20048;-73
2022/05/13 12:05:17;;;;;;;6.20;1.80;;;;;;;18.87;38.37;101047.03;6175709;23;20052;-74
2022/05/13 12:08:30;;;;;;;13.80;2.17;;;;;;;19.13;37.50;101039.66;6175250;23;20071;-74
2022/05/13 12:11:45;;;;;;;9.73;1.45;;;;;;;19.05;36.39;101044.72;6190808;22;20062;-74
2022/05/13 12:14:55;;;;;;;5.45;1.30;;;;;;;19.01;36.80;101045.91;6243128;23;20027;-73
2022/05/13 12:18:29;;;;;;;10.13;1.38;;;;;;;19.40;36.77;101041.03;6223756;23;20043;-74
2022/05/13 12:21:54;;;;;;;4.90;1.45;;;;;;;19.66;36.63;101038.94;6241859;23;20341;-74
2022/05/13 12:25:23;;;;;;;6.25;1.20;;;;;;;20.07;36.55;101035.50;6240036;23;20074;-74
2022/05/13 12:29:02;;;;;;;5.35;1.10;;;;;;;19.98;35.33;101033.63;6241464;23;20144;-73
2022/05/13 12:32:15;;;;;;;5.13;1.15;;;;;;;19.84;35.28;101028.59;6231793;23;20132;-73
2022/05/13 12:39:21;;;;;;;7.43;0.80;;;;;;;20.00;34.92;101014.91;6242092;23;20023;-72
2022/05/13 12:42:46;;;;;;;3.78;1.13;;;;;;;20.46;33.71;101008.34;6239889;23;20035;-72
2022/05/13 12:46:16;;;;;;;3.92;1.20;;;;;;;20.99;33.97;101008.13;6240074;23;20027;-72
2022/05/13 12:49:50;;;;;;;5.95;0.93;;;;;;;21.29;33.51;101007.22;6240736;23;20043;-72
2022/05/13 12:52:54;;;;;;;7.00;0.95;;;;;;;21.34;34.22;101002.31;6240641;23;20058;-72
2022/05/13 12:55:59;;;;;;;4.57;1.20;;;;;;;21.59;33.07;100995.66;6241934;23;20026;-72
2022/05/13 12:59:43;;;;;;;6.85;1.40;;;;;;;21.10;32.62;101005.38;6241737;23;20153;-72
2022/05/13 13:02:52;;;;;;;3.13;0.85;;;;;;;21.25;34.01;100997.81;6239818;23;20049;-72
2022/05/13 13:09:47;;;;;;;7.93;1.10;;;;;;;20.97;32.77;101008.28;6239509;23;20043;-72
2022/05/13 13:13:04;;;;;;;5.93;0.90;;;;;;;21.51;31.92;101003.50;6240652;22;20112;-72
2022/05/13 13:16:27;;;;;;;4.50;1.33;;;;;;;21.59;31.88;100999.16;6240407;23;20062;-71
2022/05/13 13:19:36;;;;;;;;;;;;;;;21.49;32.99;101008.94;6221635;23;20367;-72
2022/05/13 13:22:48;;;;;;;2.65;0.80;;;;;;;21.82;31.07;101007.72;6203334;23;20290;-72
2022/05/13 13:25:53;;;;;;;5.00;1.20;;;;;;;21.48;32.23;101007.28;6236551;22;20364;-77
2022/05/13 13:29:00;;;;;;;6.65;1.17;;;;;;;22.08;30.90;101003.59;6221219;23;20043;-77
2022/05/13 13:32:16;;;;;;;7.15;1.67;;;;;;;21.66;31.21;101006.56;6239149;23;20103;-76
2022/05/13 13:35:39;;;;;;;4.40;1.08;;;;;;;21.98;30.91;101004.44;6220046;23;20120;-77
2022/05/13 13:38:47;;;;;;;;;;;;;;;22.08;30.59;100996.47;6241362;23;20026;-77
2022/05/13 13:42:34;;;;;;;3.40;0.95;;;;;;;22.14;30.22;100995.03;6241344;22;19968;-76
2022/05/13 13:45:39;;;;;;;5.85;1.02;;;;;;;23.25;29.41;100994.16;6221701;22;20085;-76
2022/05/13 13:48:53;;;;;;;8.07;1.30;;;;;;;23.81;28.18;100990.38;6241492;22;20474;-73
2022/05/13 13:52:11;;;;;;;4.20;1.00;;;;;;;23.40;28.37;100997.97;6240725;22;20028;-74
2022/05/13 13:55:35;;;;;;;5.18;1.33;;;;;;;24.80;26.69;100997.97;6241028;23;20505;-74
2022/05/13 13:58:50;;;;;;;7.30;1.20;;;;;;;26.76;23.71;100985.59;6240929;23;20023;-73
2022/05/13 14:01:57;;;;;;;6.95;1.33;;;;;;;28.34;21.74;100977.88;6239208;23;20340;-76
2022/05/13 14:05:06;;;;;;;5.15;1.30;;;;;;;29.14;21.04;100980.59;6239398;23;20395;-74
2022/05/13 14:08:12;;;;;;;5.68;1.23;;;;;;;28.16;21.19;100978.22;6239701;23;20340;-74
2022/05/13 14:11:20;;;;;;;5.85;1.17;;;;;;;28.39;21.90;100975.44;6240270;23;20078;-73
2022/05/13 14:14:27;;;;;;;7.70;1.10;;;;;;;28.39;21.35;100992.41;6239952;23;20092;-73
2022/05/13 14:17:36;;;;;;;5.78;1.48;;;;;;;29.95;19.17;100980.28;6240265;23;20023;-72
2022/05/13 14:20:42;;;;;;;4.32;0.90;;;;;;;29.42;20.05;100975.28;6239717;22;20090;-72
2022/05/13 14:28:12;;;;;;;7.22;1.00;;;;;;;27.52;23.38;100976.78;6229514;23;20066;-74
2022/05/13 14:31:20;;;;;;;7.53;1.35;;;;;;;28.90;20.87;100965.56;6239422;23;20106;-74
2022/05/13 14:34:24;;;;;;;4.95;1.08;;;;;;;28.48;21.22;100971.69;6239046;23;20035;-74
2022/05/13 14:37:32;;;;;;;6.30;1.15;;;;;;;27.49;21.86;100973.63;6239820;23;20081;-74
2022/05/13 14:41:03;;;;;;;6.43;1.15;;;;;;;29.54;21.35;100956.72;6238484;23;20031;-74
2022/05/13 14:44:10;;;;;;;6.90;1.30;;;;;;;31.85;18.38;100955.22;6239379;23;20023;-75
2022/05/13 14:47:31;;;;;;;7.45;1.17;;;;;;;31.53;18.95;100954.19;6239295;23;20023;-75
2022/05/13 14:50:37;;;;;;;;;;;;;;;28.11;22.21;100959.97;6240664;23;20019;-75
2022/05/13 14:53:56;;;;;;;13.32;1.50;;;;;;;29.37;20.83;100950.75;6240481;23;19973;-75
2022/05/13 14:57:04;;;;;;;4.50;1.10;;;;;;;31.34;18.56;100949.59;6237881;23;20038;-75
2022/05/13 15:00:16;;;;;;;2.92;1.00;;;;;;;30.61;19.83;100946.66;6239298;23;20086;-77
2022/05/13 15:03:36;;;;;;;5.88;1.25;;;;;;;30.93;19.41;100945.97;6239052;23;20464;-75
2022/05/13 15:06:49;;;;;;;6.97;1.15;;;;;;;31.66;18.93;100940.66;6240431;23;20042;-75
2022/05/13 15:09:53;;;;;;;3.85;0.80;;;;;;;31.96;19.06;100946.47;6240468;23;20023;-75
2022/05/13 15:12:59;;;;;;;3.67;1.10;;;;;;;31.78;18.83;100942.72;6239737;23;20074;-75
2022/05/13 15:16:05;;;;;;;6.10;1.65;;;;;;;30.07;21.33;100945.53;6239407;23;20470;-74
2022/05/13 15:19:24;;;;;;;4.05;0.90;;;;;;;29.79;19.45;100945.53;6236822;23;20023;-74
2022/05/13 15:22:30;;;;;;;4.30;0.75;;;;;;;29.87;19.72;100946.22;6238507;22;20052;-74
2022/05/13 15:25:40;;;;;;;3.60;1.10;;;;;;;30.84;18.25;100946.34;6239966;23;20034;-75
2022/05/13 15:28:45;;;;;;;4.78;1.20;;;;;;;30.97;18.65;100939.09;6239511;23;20089;-75
2022/05/13 15:31:51;;;;;;;4.82;1.10;;;;;;;28.21;21.23;100948.94;6242731;23;20023;-75
2022/05/13 15:34:59;;;;;;;7.30;1.50;;;;;;;28.80;21.46;100942.69;6244135;23;20032;-75
2022/05/13 15:38:07;;;;;;;6.45;1.08;;;;;;;27.82;22.45;100941.94;6245415;23;20030;-74